createdAt,value
2018-03-25T00:00:53.083Z,30.10
2018-03-25T00:03:20.849Z,30.52
2018-03-25T00:05:48.597Z,29.15
2018-03-25T00:08:16.331Z,26.85
2018-03-25T00:10:44.032Z,24.83
2018-03-25T00:13:11.765Z,27.67
2018-03-25T00:15:39.493Z,29.98
2018-03-25T00:18:07.754Z,29.48
2018-03-25T00:20:36.858Z,29.98
2018-03-25T00:23:04.700Z,29.60
2018-03-25T00:25:32.430Z,28.35
2018-03-25T00:28:00.190Z,31.27
2018-03-25T00:30:27.914Z,27.40
2018-03-25T00:32:56.080Z,29.08
2018-03-25T00:35:24.213Z,22.58
2018-03-25T00:37:51.894Z,29.15
2018-03-25T00:40:19.738Z,28.20
2018-03-25T00:42:47.442Z,24.92
2018-03-25T00:45:15.167Z,27.42
2018-03-25T00:47:42.942Z,32.05
2018-03-25T00:52:49.204Z,26.10
2018-03-25T00:55:16.912Z,29.92
2018-03-25T00:57:44.730Z,31.48
2018-03-25T01:00:12.625Z,29.77
2018-03-25T01:02:40.352Z,28.83
2018-03-25T01:05:08.076Z,31.95
2018-03-25T01:07:35.819Z,26.10
2018-03-25T01:10:03.543Z,27.73
2018-03-25T01:12:31.349Z,30.30
2018-03-25T01:14:59.057Z,26.83
2018-03-25T01:17:27.167Z,25.70
2018-03-25T01:19:54.903Z,28.08
2018-03-25T01:22:22.637Z,31.92
2018-03-25T01:24:50.381Z,29.02
2018-03-25T01:27:18.211Z,33.35
2018-03-25T01:29:46.024Z,28.05
2018-03-25T01:32:13.731Z,32.55
2018-03-25T01:34:41.473Z,29.33
2018-03-25T01:37:09.259Z,28.58
2018-03-25T01:39:36.981Z,27.80
2018-03-25T01:42:04.721Z,28.35
2018-03-25T01:44:32.430Z,31.12
2018-03-25T01:47:00.581Z,27.10
2018-03-25T01:49:28.310Z,33.45
2018-03-25T01:51:56.090Z,32.00
2018-03-25T01:54:23.861Z,28.85
2018-03-25T01:56:51.632Z,32.65
2018-03-25T01:59:19.370Z,28.27
2018-03-25T02:01:47.169Z,34.58
2018-03-25T02:04:14.954Z,29.12
2018-03-25T02:06:42.676Z,30.98
2018-03-25T02:09:10.448Z,29.58
2018-03-25T02:11:38.205Z,28.67
2018-03-25T02:14:06.099Z,27.77
2018-03-25T02:16:33.798Z,32.10
2018-03-25T02:19:01.524Z,29.98
2018-03-25T02:21:29.350Z,30.35
2018-03-25T02:23:57.243Z,35.63
2018-03-25T02:26:25.077Z,32.42
2018-03-25T02:28:52.896Z,31.85
2018-03-25T02:31:20.640Z,30.60
2018-03-25T02:33:48.400Z,32.95
2018-03-25T02:36:16.197Z,31.85
2018-03-25T02:38:43.936Z,25.85
2018-03-25T02:41:11.660Z,29.40
2018-03-25T02:43:39.447Z,31.87
2018-03-25T02:46:07.222Z,29.75
2018-03-25T02:48:34.959Z,29.70
2018-03-25T02:51:02.731Z,29.08
2018-03-25T02:53:30.574Z,32.92
2018-03-25T02:55:58.323Z,32.53
2018-03-25T02:58:26.555Z,34.00
2018-03-25T03:00:54.291Z,33.08
2018-03-25T03:03:22.039Z,25.25
2018-03-25T03:05:49.869Z,29.85
2018-03-25T03:08:17.629Z,31.50
2018-03-25T03:10:45.366Z,34.50
2018-03-25T03:13:13.138Z,35.00
2018-03-25T03:15:40.905Z,30.73
2018-03-25T03:18:08.643Z,33.50
2018-03-25T03:20:36.369Z,29.90
2018-03-25T03:23:04.527Z,31.15
2018-03-25T03:25:32.338Z,34.78
2018-03-25T03:28:00.125Z,30.60
2018-03-25T03:30:27.854Z,33.15
2018-03-25T03:32:56.063Z,29.55
2018-03-25T03:35:23.826Z,30.05
2018-03-25T03:37:51.520Z,37.50
2018-03-25T03:40:19.361Z,33.58
2018-03-25T03:42:47.114Z,34.70
2018-03-25T03:45:14.924Z,34.78
2018-03-25T03:47:42.715Z,35.92
2018-03-25T03:50:10.961Z,34.33
2018-03-25T03:52:39.175Z,36.08
2018-03-25T03:55:06.918Z,27.77
2018-03-25T03:57:34.631Z,33.90
2018-03-25T04:00:02.387Z,36.00
2018-03-25T04:02:30.127Z,29.35
2018-03-25T04:04:57.934Z,31.37
2018-03-25T04:07:25.684Z,33.08
2018-03-25T04:09:53.441Z,32.58
2018-03-25T04:12:21.212Z,31.10
2018-03-25T04:14:48.983Z,33.80
2018-03-25T04:17:16.735Z,31.15
2018-03-25T04:19:44.467Z,34.25
2018-03-25T04:22:12.223Z,33.65
2018-03-25T04:24:39.959Z,35.40
2018-03-25T04:27:07.808Z,37.33
2018-03-25T04:29:35.572Z,39.65
2018-03-25T04:32:03.609Z,34.30
2018-03-25T04:34:31.399Z,32.67
2018-03-25T04:36:59.192Z,33.33
2018-03-25T04:39:26.937Z,33.03
2018-03-25T04:41:54.705Z,41.63
2018-03-25T04:44:22.498Z,33.28
2018-03-25T04:46:50.307Z,32.35
2018-03-25T04:49:18.574Z,33.60
2018-03-25T04:51:46.328Z,35.30
2018-03-25T04:54:14.466Z,31.15
2018-03-25T04:56:42.229Z,36.25
2018-03-25T04:59:10.038Z,32.58
2018-03-25T05:01:37.792Z,33.13
2018-03-25T05:04:05.553Z,33.78
2018-03-25T05:06:33.366Z,35.10
2018-03-25T05:09:01.091Z,33.80
2018-03-25T05:11:28.901Z,33.22
2018-03-25T05:13:56.679Z,34.75
2018-03-25T05:16:24.436Z,39.60
2018-03-25T05:18:52.172Z,39.17
2018-03-25T05:21:19.926Z,36.35
2018-03-25T05:23:47.710Z,35.03
2018-03-25T05:26:15.492Z,38.45
2018-03-25T05:28:43.288Z,37.25
2018-03-25T05:31:11.102Z,35.92
2018-03-25T05:33:38.921Z,50.28
2018-03-25T05:36:06.672Z,38.25
2018-03-25T05:38:34.455Z,37.67
2018-03-25T05:41:02.302Z,36.30
2018-03-25T05:43:30.108Z,33.67
2018-03-25T05:45:58.322Z,39.42
2018-03-25T05:48:26.052Z,35.40
2018-03-25T05:50:54.234Z,36.80
2018-03-25T05:53:22.033Z,42.45
2018-03-25T05:55:49.876Z,36.88
2018-03-25T05:58:17.678Z,31.73
2018-03-25T06:00:45.425Z,38.83
2018-03-25T06:03:13.180Z,35.67
2018-03-25T06:05:41.120Z,29.73
2018-03-25T06:08:08.861Z,34.30
2018-03-25T06:10:36.706Z,34.17
2018-03-25T06:13:04.474Z,41.05
2018-03-25T06:15:32.242Z,34.90
2018-03-25T06:17:59.952Z,38.38
2018-03-25T06:20:28.091Z,36.10
2018-03-25T06:23:07.101Z,35.07
2018-03-25T06:25:34.998Z,35.75
2018-03-25T06:28:03.058Z,32.80
2018-03-25T06:30:30.969Z,40.40
2018-03-25T06:32:58.825Z,34.63
2018-03-25T06:35:26.971Z,35.92
2018-03-25T06:37:54.928Z,36.35
2018-03-25T06:40:22.670Z,33.33
2018-03-25T06:42:50.527Z,40.20
2018-03-25T06:45:18.370Z,34.80
2018-03-25T06:47:46.607Z,35.53
2018-03-25T06:50:14.353Z,31.10
2018-03-25T06:52:42.208Z,31.27
2018-03-25T06:55:10.059Z,39.00
2018-03-25T06:57:41.390Z,36.22
2018-03-25T07:00:09.525Z,39.35
2018-03-25T07:02:37.338Z,39.25
2018-03-25T07:05:05.468Z,38.67
2018-03-25T07:07:33.339Z,38.05
2018-03-25T07:10:01.342Z,35.00
2018-03-25T07:12:29.127Z,39.90
2018-03-25T07:14:56.875Z,40.30
2018-03-25T07:17:24.723Z,41.72
2018-03-25T07:19:52.670Z,41.88
2018-03-25T07:22:20.890Z,35.72
2018-03-25T07:24:49.101Z,33.53
2018-03-25T07:27:16.854Z,41.30
2018-03-25T07:29:44.623Z,34.72
2018-03-25T07:32:12.485Z,32.85
2018-03-25T07:34:40.264Z,37.33
2018-03-25T07:37:08.051Z,26.12
2018-03-25T07:39:35.831Z,26.37
2018-03-25T07:42:03.570Z,26.02
2018-03-25T07:44:31.322Z,29.23
2018-03-25T07:46:59.206Z,31.27
2018-03-25T07:49:26.953Z,31.58
2018-03-25T07:51:54.720Z,19.52
2018-03-25T07:54:22.637Z,26.30
2018-03-25T07:56:50.415Z,20.83
2018-03-25T07:59:18.562Z,17.95
2018-03-25T08:01:46.279Z,22.15
2018-03-25T08:04:14.024Z,19.52
2018-03-25T08:06:41.782Z,20.05
2018-03-25T08:09:09.961Z,26.50
2018-03-25T08:11:37.716Z,22.83
2018-03-25T08:14:05.474Z,21.35
2018-03-25T08:16:33.611Z,23.23
2018-03-25T08:19:01.388Z,20.90
2018-03-25T08:21:29.157Z,21.60
2018-03-25T08:23:56.948Z,26.12
2018-03-25T08:26:24.842Z,24.23
2018-03-25T08:28:52.615Z,20.30
2018-03-25T08:31:20.375Z,21.62
2018-03-25T08:33:48.132Z,22.00
2018-03-25T08:36:16.143Z,19.95
2018-03-25T08:38:43.855Z,25.62
2018-03-25T08:41:11.588Z,23.30
2018-03-25T08:43:39.363Z,23.98
2018-03-25T08:46:07.071Z,26.15
2018-03-25T08:48:35.002Z,25.37
2018-03-25T08:51:02.723Z,20.20
2018-03-25T08:53:30.468Z,21.80
2018-03-25T08:55:58.167Z,25.37
2018-03-25T09:01:00.369Z,25.73
2018-03-25T09:03:28.155Z,23.55
2018-03-25T09:05:56.278Z,22.92
2018-03-25T09:08:24.019Z,59.67
2018-03-25T09:10:51.758Z,24.27
2018-03-25T09:13:19.736Z,28.48
2018-03-25T09:15:47.519Z,24.70
2018-03-25T09:18:15.287Z,26.50
2018-03-25T09:20:43.042Z,23.55
2018-03-25T09:23:10.900Z,19.70
2018-03-25T09:25:38.998Z,26.43
2018-03-25T09:28:06.760Z,23.57
2018-03-25T09:30:34.522Z,24.10
2018-03-25T09:33:02.348Z,23.67
2018-03-25T09:35:30.126Z,27.40
2018-03-25T09:37:57.935Z,26.23
2018-03-25T09:40:25.684Z,27.13
2018-03-25T09:42:53.450Z,25.20
2018-03-25T09:45:26.738Z,29.17
2018-03-25T09:47:54.532Z,27.20
2018-03-25T09:50:22.790Z,32.73
2018-03-25T09:52:50.479Z,30.47
2018-03-25T09:55:18.765Z,29.60
2018-03-25T09:57:47.112Z,25.37
2018-03-25T10:00:15.018Z,29.80
2018-03-25T10:02:42.879Z,24.43
2018-03-25T10:05:10.711Z,25.63
2018-03-25T10:07:38.520Z,29.07
2018-03-25T10:10:06.282Z,28.60
2018-03-25T10:12:34.397Z,27.57
2018-03-25T10:15:02.104Z,25.23
2018-03-25T10:17:30.058Z,26.10
2018-03-25T10:19:57.796Z,23.07
2018-03-25T10:22:25.579Z,25.00
2018-03-25T10:24:53.378Z,29.67
2018-03-25T10:27:21.115Z,25.23
2018-03-25T10:29:50.814Z,25.60
2018-03-25T10:32:18.594Z,24.93
2018-03-25T10:34:46.429Z,26.20
2018-03-25T10:37:14.199Z,25.90
2018-03-25T10:42:38.378Z,26.27
2018-03-25T10:45:10.021Z,24.90
2018-03-25T10:47:41.319Z,27.20
2018-03-25T10:50:09.100Z,24.33
2018-03-25T10:52:38.502Z,26.27
2018-03-25T10:55:09.223Z,26.57
2018-03-25T10:57:37.203Z,24.67
2018-03-25T11:00:05.043Z,27.60
2018-03-25T11:02:32.779Z,27.00
2018-03-25T11:05:00.500Z,26.07
2018-03-25T11:07:28.259Z,26.80
2018-03-25T11:09:56.726Z,26.20
2018-03-25T11:14:56.579Z,26.37
2018-03-25T11:17:25.280Z,23.63
2018-03-25T11:19:55.136Z,27.57
2018-03-25T11:22:23.406Z,24.10
2018-03-25T11:24:51.174Z,27.70
2018-03-25T11:27:18.973Z,24.60
2018-03-25T11:29:47.820Z,25.83
2018-03-25T11:32:16.009Z,23.80
2018-03-25T11:34:43.734Z,27.53
2018-03-25T11:39:49.767Z,26.27
2018-03-25T11:42:17.596Z,29.33
2018-03-25T11:44:46.571Z,26.00
2018-03-25T11:47:14.440Z,28.07
2018-03-25T11:49:42.609Z,23.30
2018-03-25T11:52:10.791Z,23.87
2018-03-25T11:54:38.523Z,25.13
2018-03-25T11:57:06.790Z,24.67
2018-03-25T12:05:31.901Z,24.33
2018-03-25T12:08:00.547Z,26.57
2018-03-25T12:10:29.303Z,24.00
2018-03-25T12:12:57.158Z,22.50
2018-03-25T12:15:25.605Z,23.33
2018-03-25T12:17:55.144Z,23.50
2018-03-25T12:20:27.351Z,27.57
2018-03-25T12:23:01.594Z,21.13
2018-03-25T12:25:37.142Z,24.43
2018-03-25T12:28:05.476Z,22.93
2018-03-25T12:30:34.052Z,19.20
2018-03-25T12:33:01.805Z,24.00
2018-03-25T12:35:29.499Z,20.57
2018-03-25T12:37:57.191Z,23.73
2018-03-25T12:40:24.902Z,18.10
2018-03-25T12:42:52.538Z,21.23
2018-03-25T12:45:20.243Z,25.30
2018-03-25T12:47:47.906Z,22.90
2018-03-25T12:50:15.578Z,25.13
2018-03-25T12:52:43.254Z,26.33
2018-03-25T12:55:10.929Z,23.33
2018-03-25T12:57:38.631Z,22.30
2018-03-25T13:00:07.526Z,21.30
2018-03-25T13:02:35.213Z,19.37
2018-03-25T13:05:02.891Z,22.83
2018-03-25T13:07:30.553Z,20.90
2018-03-25T13:09:59.935Z,22.77
2018-03-25T13:12:27.662Z,22.33
2018-03-25T13:14:55.329Z,20.60
2018-03-25T13:17:23.015Z,20.87
2018-03-25T13:22:42.270Z,23.50
2018-03-25T13:25:10.378Z,22.13
2018-03-25T13:27:38.065Z,20.47
2018-03-25T13:30:05.738Z,24.00
2018-03-25T13:35:42.181Z,19.13
2018-03-25T13:38:09.892Z,22.53
2018-03-25T13:40:37.638Z,21.30
2018-03-25T13:43:05.299Z,21.23
2018-03-25T13:45:32.986Z,22.27
2018-03-25T13:48:01.656Z,20.93
2018-03-25T13:50:29.323Z,21.77
2018-03-25T13:52:57.027Z,20.70
2018-03-25T13:55:25.151Z,23.67
2018-03-25T13:57:52.856Z,19.33
2018-03-25T14:00:20.949Z,22.43
2018-03-25T14:02:48.641Z,22.07
2018-03-25T14:05:16.318Z,21.50
2018-03-25T14:07:44.007Z,21.40
2018-03-25T14:10:11.687Z,21.57
2018-03-25T14:12:39.377Z,22.73
2018-03-25T14:15:07.056Z,20.17
2018-03-25T14:17:34.739Z,21.03
2018-03-25T14:20:02.415Z,23.67
2018-03-25T14:22:30.115Z,27.03
2018-03-25T14:24:57.770Z,22.07
2018-03-25T14:27:25.475Z,20.03
2018-03-25T14:29:53.206Z,22.80
2018-03-25T14:32:20.825Z,20.70
2018-03-25T14:34:48.505Z,24.60
2018-03-25T14:37:16.598Z,23.33
2018-03-25T14:39:44.923Z,21.50
2018-03-25T14:42:12.719Z,19.00
2018-03-25T14:44:40.870Z,19.20
2018-03-25T14:47:08.622Z,21.30
2018-03-25T14:49:36.479Z,20.27
2018-03-25T14:52:04.505Z,24.07
2018-03-25T14:57:09.843Z,22.87
2018-03-25T14:59:37.601Z,22.87
2018-03-25T15:02:05.415Z,22.53
2018-03-25T15:04:33.265Z,22.03
2018-03-25T15:07:01.964Z,21.00
2018-03-25T15:09:29.724Z,22.03
2018-03-25T15:11:57.499Z,21.70
2018-03-25T15:14:25.255Z,17.03
2018-03-25T15:16:52.995Z,21.63
2018-03-25T15:19:20.819Z,20.83
2018-03-25T15:21:48.584Z,24.13
2018-03-25T15:24:16.303Z,20.97
2018-03-25T15:26:44.264Z,21.87
2018-03-25T15:29:12.019Z,20.90
2018-03-25T15:31:39.792Z,21.77
2018-03-25T15:34:08.526Z,24.00
2018-03-25T15:36:36.288Z,23.60
2018-03-25T15:39:04.133Z,23.73
2018-03-25T15:41:32.591Z,23.40
2018-03-25T15:44:00.414Z,22.63
2018-03-25T15:46:29.190Z,22.87
2018-03-25T15:48:57.471Z,19.37
2018-03-25T15:51:25.990Z,23.07
2018-03-25T15:53:55.104Z,21.47
2018-03-25T15:56:23.218Z,24.00
2018-03-25T15:59:00.103Z,23.67
2018-03-25T16:01:31.808Z,26.50
2018-03-25T16:04:01.020Z,23.67
2018-03-25T16:06:29.758Z,22.70
2018-03-25T16:09:01.409Z,26.87
2018-03-25T16:11:32.253Z,27.60
2018-03-25T16:14:00.163Z,27.03
2018-03-25T16:16:29.568Z,24.20
2018-03-25T16:18:58.205Z,25.50
2018-03-25T16:21:26.570Z,24.20
2018-03-25T16:23:55.714Z,26.70
2018-03-25T16:26:24.222Z,23.80
2018-03-25T16:28:52.565Z,25.47
2018-03-25T16:31:21.154Z,24.37
2018-03-25T16:36:52.762Z,28.47
2018-03-25T16:39:20.882Z,30.17
2018-03-25T16:41:49.075Z,33.53
2018-03-25T16:44:17.513Z,29.60
2018-03-25T16:46:45.736Z,31.13
2018-03-25T16:49:15.899Z,32.67
2018-03-25T16:51:45.023Z,29.47
2018-03-25T16:54:13.920Z,29.97
2018-03-25T16:56:44.005Z,28.30
2018-03-25T16:59:12.007Z,34.57
2018-03-25T17:01:40.352Z,25.67
2018-03-25T17:04:08.820Z,25.90
2018-03-25T17:06:37.602Z,26.43
2018-03-25T17:09:06.162Z,28.23
2018-03-25T17:11:34.154Z,28.80
2018-03-25T17:14:02.706Z,28.63
2018-03-25T17:16:31.251Z,29.10
2018-03-25T17:18:59.707Z,25.73
2018-03-25T17:21:28.508Z,27.20
2018-03-25T17:23:56.986Z,27.10
2018-03-25T17:26:25.397Z,26.07
2018-03-25T17:28:53.291Z,30.33
2018-03-25T17:31:21.185Z,26.27
2018-03-25T17:33:49.562Z,26.27
2018-03-25T17:36:17.716Z,27.03
2018-03-25T17:38:45.455Z,31.30
2018-03-25T17:41:13.263Z,25.03
2018-03-25T17:43:47.029Z,28.63
2018-03-25T17:46:14.841Z,26.47
2018-03-25T17:48:44.342Z,30.93
2018-03-25T17:51:13.105Z,25.27
2018-03-25T17:53:40.870Z,28.50
2018-03-25T17:56:08.596Z,26.50
2018-03-25T17:58:36.446Z,30.50
2018-03-25T18:01:04.587Z,32.60
2018-03-25T18:03:32.332Z,32.83
2018-03-25T18:06:00.089Z,33.47
2018-03-25T18:08:27.848Z,42.27
2018-03-25T18:10:56.064Z,34.50
2018-03-25T18:13:23.787Z,32.47
2018-03-25T18:15:51.558Z,29.07
2018-03-25T18:18:19.321Z,32.93
2018-03-25T18:20:56.293Z,33.40
2018-03-25T18:23:15.968Z,32.97
2018-03-25T18:25:43.728Z,34.37
2018-03-25T18:28:11.492Z,37.73
2018-03-25T18:30:39.264Z,39.07
2018-03-25T18:33:06.975Z,36.67
2018-03-25T18:35:34.767Z,33.57
2018-03-25T18:38:02.515Z,35.17
2018-03-25T18:40:30.366Z,35.60
2018-03-25T18:42:58.180Z,34.80
2018-03-25T18:45:27.931Z,38.03
2018-03-25T18:47:55.716Z,36.00
2018-03-25T18:50:23.506Z,33.97
2018-03-25T18:55:42.159Z,38.67
2018-03-25T18:58:09.882Z,38.23
2018-03-25T19:00:37.611Z,37.07
2018-03-25T19:03:05.402Z,38.23
2018-03-25T19:05:33.170Z,35.30
2018-03-25T19:08:02.963Z,35.80
2018-03-25T19:10:30.750Z,36.63
2018-03-25T19:12:58.537Z,39.93
2018-03-25T19:15:26.721Z,35.97
2018-03-25T19:17:54.485Z,36.60
2018-03-25T19:20:22.249Z,36.80
2018-03-25T19:22:50.101Z,39.63
2018-03-25T19:25:17.944Z,43.77
2018-03-25T19:27:45.728Z,40.37
2018-03-25T19:30:13.518Z,40.43
2018-03-25T19:32:41.238Z,43.20
2018-03-25T19:35:09.043Z,41.47
2018-03-25T19:37:36.790Z,44.53
2018-03-25T19:40:04.611Z,40.77
2018-03-25T19:42:32.369Z,39.43
2018-03-25T19:45:00.575Z,40.63
2018-03-25T19:47:28.393Z,38.80
2018-03-25T19:49:56.437Z,34.37
2018-03-25T19:52:24.168Z,42.77
2018-03-25T19:54:52.023Z,38.43
2018-03-25T19:57:19.748Z,37.17
2018-03-25T19:59:47.533Z,42.10
2018-03-25T20:02:15.650Z,40.80
2018-03-25T20:04:43.431Z,42.77
2018-03-25T20:07:11.202Z,44.50
2018-03-25T20:09:39.078Z,43.60
2018-03-25T20:12:08.151Z,37.43
2018-03-25T20:14:35.950Z,45.23
2018-03-25T20:17:04.348Z,41.00
2018-03-25T20:19:32.172Z,44.87
2018-03-25T20:22:01.038Z,44.97
2018-03-25T20:24:29.743Z,43.97
2018-03-25T20:26:57.911Z,41.80
2018-03-25T20:29:25.862Z,39.97
2018-03-25T20:31:53.566Z,37.67
2018-03-25T20:34:21.363Z,45.87
2018-03-25T20:36:49.481Z,42.40
2018-03-25T20:39:17.336Z,37.43
2018-03-25T20:41:45.110Z,50.07
2018-03-25T20:44:12.841Z,42.20
2018-03-25T20:46:40.692Z,45.27
2018-03-25T20:49:08.421Z,47.97
2018-03-25T20:51:36.325Z,42.20
2018-03-25T20:54:04.071Z,45.73
2018-03-25T20:56:31.862Z,47.83
2018-03-25T20:58:59.704Z,43.00
2018-03-25T21:01:27.490Z,46.23
2018-03-25T21:03:55.623Z,42.00
2018-03-25T21:06:23.464Z,39.67
2018-03-25T21:08:51.187Z,41.80
2018-03-25T21:11:19.010Z,46.73
2018-03-25T21:13:46.798Z,40.33
2018-03-25T21:16:14.592Z,47.83
2018-03-25T21:18:42.391Z,48.87
2018-03-25T21:21:10.123Z,50.57
2018-03-25T21:23:38.084Z,47.30
2018-03-25T21:26:05.772Z,43.70
2018-03-25T21:28:33.523Z,47.00
2018-03-25T21:31:01.750Z,47.27
2018-03-25T21:33:29.498Z,43.03
2018-03-25T21:35:57.343Z,38.00
2018-03-25T21:38:25.133Z,38.97
2018-03-25T21:40:52.887Z,39.50
2018-03-25T21:43:20.655Z,44.80
2018-03-25T21:45:48.424Z,49.87
2018-03-25T21:48:16.154Z,46.40
2018-03-25T21:50:43.959Z,43.67
2018-03-25T21:53:12.929Z,44.78
2018-03-25T21:55:41.313Z,44.88
2018-03-25T21:58:09.125Z,45.17
2018-03-25T22:00:36.883Z,45.20
2018-03-25T22:03:04.650Z,48.63
2018-03-25T22:05:32.410Z,44.77
2018-03-25T22:08:00.189Z,43.77
2018-03-25T22:10:28.749Z,47.90
2018-03-25T22:12:56.601Z,46.60
2018-03-25T22:15:24.997Z,49.33
2018-03-25T22:17:52.814Z,46.47
2018-03-25T22:20:21.003Z,50.67
2018-03-25T22:22:48.795Z,44.40
2018-03-25T22:25:16.549Z,42.50
2018-03-25T22:27:44.542Z,41.80
2018-03-25T22:30:12.622Z,36.80
2018-03-25T22:32:40.381Z,46.60
2018-03-25T22:35:08.118Z,38.47
2018-03-25T22:37:35.860Z,43.87
2018-03-25T22:40:04.029Z,43.90
2018-03-25T22:42:32.163Z,44.57
2018-03-25T22:45:00.061Z,42.93
2018-03-25T22:47:27.778Z,43.38
2018-03-25T22:49:55.491Z,55.38
2018-03-25T22:52:23.647Z,45.07
2018-03-25T22:54:51.376Z,44.00
2018-03-25T22:57:19.224Z,45.53
2018-03-25T22:59:46.966Z,43.20
2018-03-25T23:02:14.722Z,42.03
2018-03-25T23:04:42.859Z,46.30
2018-03-25T23:07:10.607Z,47.03
2018-03-25T23:09:38.369Z,45.40
2018-03-25T23:12:06.075Z,47.10
2018-03-25T23:14:34.272Z,46.65
2018-03-25T23:17:02.418Z,45.00
2018-03-25T23:19:30.155Z,46.88
2018-03-25T23:21:57.951Z,44.50
2018-03-25T23:24:25.725Z,48.08
2018-03-25T23:26:53.506Z,48.03
2018-03-25T23:29:21.690Z,44.20
2018-03-25T23:31:49.509Z,48.25
2018-03-25T23:34:17.317Z,44.90
2018-03-25T23:36:45.436Z,49.33
2018-03-25T23:39:13.219Z,48.47
2018-03-25T23:41:40.972Z,54.25
2018-03-25T23:44:08.759Z,47.62
2018-03-25T23:46:36.538Z,49.58
2018-03-25T23:49:04.249Z,49.45
2018-03-25T23:51:32.000Z,44.90
2018-03-25T23:53:59.778Z,47.62
2018-03-25T23:56:27.602Z,45.72
2018-03-25T23:58:55.330Z,47.40
